Time;durP1;ratioP1;P1;durP2;ratioP2;P2;SDS_P1;SDS_P2;PMS_P1;PMS_P2;Temp;Humidity;BMP_temperature;BMP_pressure;BME280_temperature;BME280_humidity;BME280_pressure;Samples;Min_cycle;Max_cycle;Signal;HPM_P1;HPM_P2
2023/09/28 00:00:39;;;;;;;18.58;4.95;;;;;;;19.54;56.95;98846.47;5094744;28;20073;-45
2023/09/28 00:03:07;;;;;;;13.43;5.38;;;;;;;19.27;57.26;98857.94;5093498;28;20043;-45
2023/09/28 00:05:32;;;;;;;20.45;6.72;;;;;;;19.10;57.88;98846.63;5094892;28;20040;-45
2023/09/28 00:08:00;;;;;;;14.75;6.05;;;;;;;19.31;58.71;98843.06;5094361;28;20142;-45
2023/09/28 00:10:26;;;;;;;15.88;6.55;;;;;;;19.71;57.34;98841.03;5094466;28;20020;-45
2023/09/28 00:12:53;;;;;;;7.70;4.25;;;;;;;19.53;56.12;98840.31;5094530;28;20028;-45
2023/09/28 00:15:20;;;;;;;8.07;3.90;;;;;;;19.13;56.11;98846.91;5094409;28;20024;-45
2023/09/28 00:17:48;;;;;;;6.50;3.85;;;;;;;18.80;56.87;98861.22;5076343;28;20401;-45
2023/09/28 00:20:19;;;;;;;10.30;4.43;;;;;;;18.52;57.49;98867.53;5093007;28;20034;-45
2023/09/28 00:22:49;;;;;;;7.88;4.88;;;;;;;18.42;57.96;98872.72;5093081;28;20140;-45
2023/09/28 00:25:16;;;;;;;10.05;4.13;;;;;;;18.46;57.97;98874.63;5092920;28;20054;-45
2023/09/28 00:27:47;;;;;;;20.77;9.20;;;;;;;18.65;58.36;98876.97;5094245;28;20046;-45
2023/09/28 00:30:24;;;;;;;29.23;22.98;;;;;;;19.28;58.57;98874.72;5094371;28;20028;-45
2023/09/28 00:32:51;;;;;;;14.20;6.70;;;;;;;20.15;57.06;98875.38;5094205;28;20103;-45
2023/09/28 00:35:18;;;;;;;12.18;5.85;;;;;;;20.70;56.40;98879.38;5092718;28;20123;-45
2023/09/28 00:37:44;;;;;;;14.15;6.60;;;;;;;20.75;56.31;98881.28;5094073;28;20020;-45
2023/09/28 00:42:56;;;;;;;22.63;7.40;;;;;;;20.54;57.35;98877.69;5094201;28;20027;-45
2023/09/28 00:45:23;;;;;;;26.27;15.20;;;;;;;20.91;56.21;98877.59;5093902;28;20024;-45
2023/09/28 00:47:51;;;;;;;15.30;8.57;;;;;;;20.98;55.00;98876.53;5093738;28;20020;-45
2023/09/28 00:50:17;;;;;;;11.05;6.30;;;;;;;20.51;55.65;98880.88;5092334;28;20028;-45
2023/09/28 00:52:52;;;;;;;16.40;5.63;;;;;;;20.44;55.72;98878.44;5092407;28;20032;-45
2023/09/28 00:55:19;;;;;;;10.63;5.03;;;;;;;20.09;55.61;98887.06;5092835;28;20035;-45
2023/09/28 00:57:46;;;;;;;17.17;4.90;;;;;;;19.56;56.36;98893.06;5092316;28;20028;-45
2023/09/28 01:00:27;;;;;;;16.83;6.00;;;;;;;19.10;57.45;98895.31;5093559;28;20028;-45
2023/09/28 01:02:55;;;;;;;9.75;4.80;;;;;;;18.75;58.79;98893.84;5093957;28;20393;-45
2023/09/28 01:05:26;;;;;;;46.42;35.08;;;;;;;18.61;59.51;98889.16;5093439;28;20035;-45
2023/09/28 01:07:52;;;;;;;15.82;7.38;;;;;;;18.44;59.40;98891.88;5093345;28;20048;-45
2023/09/28 01:10:24;;;;;;;16.48;6.50;;;;;;;18.29;59.66;98887.97;5093266;28;20077;-45
2023/09/28 01:12:55;;;;;;;30.40;10.60;;;;;;;18.59;64.80;98893.91;5093630;28;20028;-44
2023/09/28 01:15:22;;;;;;;37.80;31.08;;;;;;;18.42;64.50;98886.78;5093348;28;20047;-45
2023/09/28 01:17:47;;;;;;;11.80;6.38;;;;;;;18.20;65.48;98884.13;5092169;28;20032;-45
2023/09/28 01:22:42;;;;;;;48.22;42.22;;;;;;;17.49;64.47;98886.50;5093096;28;20059;-45
2023/09/28 01:25:08;;;;;;;33.97;24.10;;;;;;;17.64;66.85;98881.41;5091752;28;20489;-45
2023/09/28 01:27:34;;;;;;;475.33;423.17;;;;;;;17.90;65.21;98872.00;5092975;28;20032;-44
2023/09/28 01:30:00;;;;;;;35.75;28.63;;;;;;;18.12;64.58;98868.59;5092963;28;20027;-45
2023/09/28 01:32:25;;;;;;;11.25;8.32;;;;;;;18.34;64.45;98868.63;5093151;28;20024;-45
2023/09/28 01:34:51;;;;;;;15.73;5.53;;;;;;;18.50;63.37;98875.72;5092896;28;20020;-45
2023/09/28 01:37:21;;;;;;;11.38;5.13;;;;;;;18.77;62.64;98869.66;5091554;28;20110;-45
2023/09/28 01:39:51;;;;;;;10.50;6.15;;;;;;;18.91;61.35;98875.41;5093168;28;20020;-45
2023/09/28 01:42:17;;;;;;;11.38;5.20;;;;;;;19.00;60.86;98873.94;5092777;28;20020;-45
2023/09/28 01:44:42;;;;;;;9.65;4.45;;;;;;;19.07;60.21;98873.72;5092751;28;20440;-45
2023/09/28 01:47:08;;;;;;;12.48;4.80;;;;;;;18.96;59.92;98881.59;5092611;28;20107;-45
2023/09/28 01:49:34;;;;;;;9.38;5.40;;;;;;;18.69;59.88;98886.88;5092714;28;20099;-45
2023/09/28 01:51:59;;;;;;;7.50;4.00;;;;;;;18.41;60.40;98898.50;5092472;28;20026;-45
2023/09/28 01:54:25;;;;;;;19.55;6.43;;;;;;;18.31;61.34;98898.34;5092601;28;20540;-45
2023/09/28 01:56:51;;;;;;;19.00;6.15;;;;;;;18.70;61.52;98900.97;5092445;28;20028;-45
2023/09/28 01:59:16;;;;;;;12.40;6.18;;;;;;;19.39;60.15;98897.69;5092499;28;20085;-45
2023/09/28 02:01:42;;;;;;;11.98;5.43;;;;;;;20.02;58.34;98903.28;5092475;28;20070;-45
2023/09/28 02:04:07;;;;;;;9.48;4.95;;;;;;;20.48;56.43;98908.88;5092383;28;20611;-45
2023/09/28 02:06:33;;;;;;;9.23;5.65;;;;;;;20.72;55.32;98901.25;5092259;28;20439;-45
2023/09/28 02:08:59;;;;;;;21.38;7.15;;;;;;;20.78;54.88;98902.06;5090865;28;20085;-45
2023/09/28 02:11:24;;;;;;;10.07;5.43;;;;;;;20.82;54.47;98902.34;5091176;28;20020;-45
2023/09/28 02:13:50;;;;;;;12.35;5.45;;;;;;;20.87;54.20;98907.72;5090886;28;20081;-45
2023/09/28 02:16:16;;;;;;;7.38;3.90;;;;;;;20.93;53.72;98898.66;5091184;28;20040;-45
2023/09/28 02:18:42;;;;;;;9.82;5.10;;;;;;;20.52;53.29;98901.97;5092132;28;20039;-45
2023/09/28 02:21:13;;;;;;;8.90;5.28;;;;;;;20.12;54.26;98895.38;5092027;28;20615;-45
2023/09/28 02:23:38;;;;;;;15.98;6.40;;;;;;;19.92;55.82;98897.88;5090819;28;20470;-45
2023/09/28 02:26:06;;;;;;;10.07;5.07;;;;;;;19.91;55.29;98894.41;5092067;28;20117;-45
2023/09/28 02:28:32;;;;;;;12.75;4.85;;;;;;;19.53;55.90;98893.56;5092290;28;20035;-45
2023/09/28 02:31:06;;;;;;;12.02;5.20;;;;;;;19.32;56.96;98897.91;5090587;28;20024;-45
2023/09/28 02:33:31;;;;;;;6.88;4.15;;;;;;;19.14;57.01;98900.94;5092211;28;20032;-45
2023/09/28 02:35:57;;;;;;;6.70;4.80;;;;;;;18.75;57.80;98903.66;5090892;28;20107;-45
2023/09/28 02:38:23;;;;;;;7.18;4.18;;;;;;;18.50;58.90;98898.84;5091868;28;20035;-45
2023/09/28 02:40:48;;;;;;;10.82;4.40;;;;;;;18.13;59.91;98902.09;5091850;28;20020;-45
2023/09/28 02:43:14;;;;;;;7.30;4.30;;;;;;;17.94;60.85;98890.91;5092103;28;20382;-45
2023/09/28 02:45:40;;;;;;;6.25;3.90;;;;;;;17.77;61.12;98889.06;5091823;28;20070;-45
2023/09/28 02:48:06;;;;;;;10.63;4.90;;;;;;;17.53;62.12;98888.41;5092135;28;20070;-45
2023/09/28 02:50:31;;;;;;;11.73;4.55;;;;;;;17.19;63.17;98887.56;5091690;28;20031;-45
2023/09/28 02:52:57;;;;;;;7.55;5.05;;;;;;;16.98;63.99;98883.72;5090490;28;20461;-45
2023/09/28 02:55:22;;;;;;;9.25;4.70;;;;;;;16.82;64.78;98882.66;5091769;28;20436;-45
2023/09/28 02:57:49;;;;;;;7.95;4.72;;;;;;;16.84;65.25;98887.72;5091701;28;20020;-45
2023/09/28 03:00:30;;;;;;;6.40;4.90;;;;;;;16.77;65.30;98893.91;5091944;28;20386;-44
2023/09/28 03:03:00;;;;;;;9.85;5.18;;;;;;;16.87;65.85;98885.41;5091622;28;20059;-44
2023/09/28 03:05:27;;;;;;;11.02;5.35;;;;;;;16.99;65.85;98882.69;5090311;28;20106;-45
2023/09/28 03:07:53;;;;;;;12.38;5.38;;;;;;;17.05;65.63;98892.34;5091504;28;20117;-44
2023/09/28 03:10:19;;;;;;;11.45;4.78;;;;;;;17.10;65.70;98889.81;5091533;28;20491;-45
2023/09/28 03:12:46;;;;;;;5.28;4.57;;;;;;;17.36;65.86;98892.88;5090533;28;20172;-45
2023/09/28 03:15:13;;;;;;;7.90;5.43;;;;;;;17.51;64.87;98887.06;5091506;28;20012;-45
2023/09/28 03:17:40;;;;;;;10.18;4.70;;;;;;;17.55;64.44;98880.22;5092781;28;20047;-45
2023/09/28 03:20:13;;;;;;;9.25;5.25;;;;;;;17.54;64.53;98883.91;5095484;28;20016;-45
2023/09/28 03:22:44;;;;;;;7.88;5.20;;;;;;;17.47;64.45;98888.56;5094550;28;20028;-45
2023/09/28 03:25:16;;;;;;;6.78;4.50;;;;;;;17.12;64.62;98879.78;5095772;28;20460;-44
2023/09/28 03:27:42;;;;;;;6.47;5.07;;;;;;;16.84;65.72;98880.59;5095444;28;20075;-45
2023/09/28 03:30:11;;;;;;;7.63;5.22;;;;;;;16.68;66.72;98886.56;5095347;28;20024;-45
2023/09/28 03:32:38;;;;;;;15.73;6.43;;;;;;;16.73;67.50;98897.28;5095289;28;20082;-45
2023/09/28 03:35:08;;;;;;;10.20;4.53;;;;;;;16.89;67.27;98893.91;5095173;28;20024;-45
2023/09/28 03:37:33;;;;;;;11.27;5.05;;;;;;;16.99;66.88;98892.50;5095204;28;20024;-44
2023/09/28 03:40:00;;;;;;;8.40;4.40;;;;;;;16.94;66.59;98888.72;5095160;28;20062;-45
2023/09/28 03:42:27;;;;;;;6.75;4.35;;;;;;;16.82;66.85;98893.25;5095126;28;20028;-45
2023/09/28 03:44:53;;;;;;;9.68;4.30;;;;;;;16.71;66.98;98902.81;5095054;28;20385;-45
2023/09/28 03:47:19;;;;;;;9.95;5.30;;;;;;;16.57;67.51;98907.56;5093734;28;20028;-45
2023/09/28 03:49:45;;;;;;;10.05;4.97;;;;;;;16.49;68.06;98912.44;5094974;28;20020;-45
2023/09/28 03:52:10;;;;;;;12.95;5.05;;;;;;;16.45;68.26;98904.13;5094748;28;20028;-44
2023/09/28 03:54:36;;;;;;;9.60;4.25;;;;;;;16.41;68.69;98918.09;5094933;28;20020;-45
2023/09/28 03:57:02;;;;;;;11.60;5.60;;;;;;;16.50;68.96;98916.69;5093467;28;20071;-45
2023/09/28 03:59:28;;;;;;;12.15;5.50;;;;;;;16.78;68.71;98913.28;5094707;28;20074;-45
2023/09/28 04:01:54;;;;;;;9.05;5.38;;;;;;;16.97;67.91;98914.75;5094787;28;20030;-45
2023/09/28 04:04:20;;;;;;;15.63;5.50;;;;;;;17.19;67.78;98911.44;5094729;28;20016;-45
2023/09/28 04:06:45;;;;;;;7.47;4.88;;;;;;;17.39;66.54;98913.66;5093320;28;20558;-45
2023/09/28 04:09:11;;;;;;;9.00;5.00;;;;;;;17.36;66.47;98909.63;5094483;28;20079;-45
2023/09/28 04:11:37;;;;;;;15.07;6.30;;;;;;;17.42;66.49;98912.34;5094468;28;20390;-44
2023/09/28 04:14:03;;;;;;;10.38;5.43;;;;;;;17.70;66.09;98917.59;5094483;28;20517;-45
2023/09/28 04:16:28;;;;;;;9.55;4.80;;;;;;;17.65;65.06;98922.03;5094690;28;20028;-45
2023/09/28 04:18:54;;;;;;;8.38;4.80;;;;;;;17.29;65.59;98929.38;5094429;28;20594;-45
2023/09/28 04:21:20;;;;;;;9.48;5.78;;;;;;;17.03;66.28;98931.56;5093372;28;20123;-45
2023/09/28 04:23:45;;;;;;;9.20;4.97;;;;;;;16.84;66.94;98944.19;5094351;28;20103;-45
2023/09/28 04:26:11;;;;;;;5.85;4.75;;;;;;;16.73;67.24;98937.03;5092999;28;20024;-45
2023/09/28 04:28:37;;;;;;;11.50;5.57;;;;;;;16.66;67.93;98929.22;5093476;28;20086;-45
2023/09/28 04:31:02;;;;;;;9.07;5.93;;;;;;;16.74;68.28;98923.56;5093719;28;20462;-45
2023/09/28 04:33:28;;;;;;;12.00;5.60;;;;;;;16.90;68.32;98919.41;5092845;28;20042;-45
2023/09/28 04:35:54;;;;;;;9.57;5.18;;;;;;;17.15;67.51;98919.06;5092795;28;20031;-45
2023/09/28 04:38:19;;;;;;;12.45;5.78;;;;;;;17.25;66.73;98925.59;5093142;28;20031;-45
2023/09/28 04:40:45;;;;;;;10.73;5.40;;;;;;;17.17;66.49;98921.47;5093979;28;20043;-45
2023/09/28 04:43:11;;;;;;;8.65;4.80;;;;;;;17.03;66.56;98922.81;5093955;28;20035;-45
2023/09/28 04:45:36;;;;;;;8.55;6.50;;;;;;;16.97;66.68;98935.16;5093844;28;20494;-44
2023/09/28 04:48:04;;;;;;;7.85;5.35;;;;;;;16.93;66.97;98934.03;5092881;28;20074;-44
2023/09/28 04:50:29;;;;;;;15.60;5.25;;;;;;;17.04;66.92;98933.16;5093802;28;20020;-45
2023/09/28 04:52:55;;;;;;;15.15;5.95;;;;;;;17.15;66.70;98936.81;5092418;28;20031;-45
2023/09/28 04:55:21;;;;;;;10.02;5.50;;;;;;;17.35;66.36;98939.03;5092745;28;20028;-45
2023/09/28 04:57:47;;;;;;;14.80;5.53;;;;;;;17.37;65.66;98942.28;5093697;28;20028;-45
2023/09/28 05:00:16;;;;;;;14.13;5.80;;;;;;;17.07;65.53;98935.34;5093627;28;20103;-45
2023/09/28 05:02:45;;;;;;;11.90;6.97;;;;;;;16.63;66.65;98940.28;5093533;28;20032;-45
2023/09/28 05:05:11;;;;;;;15.75;7.57;;;;;;;16.31;68.00;98945.16;5093713;28;20016;-45
2023/09/28 05:07:37;;;;;;;7.30;5.22;;;;;;;16.11;69.11;98951.59;5093253;28;20043;-45
2023/09/28 05:10:05;;;;;;;8.90;5.75;;;;;;;15.98;69.67;98946.53;5093386;28;20400;-45
2023/09/28 05:12:32;;;;;;;8.43;5.90;;;;;;;15.88;70.37;98949.75;5093281;28;20030;-45
2023/09/28 05:14:59;;;;;;;10.00;5.60;;;;;;;15.80;70.92;98944.78;5093573;28;20031;-45
2023/09/28 05:17:24;;;;;;;14.77;6.50;;;;;;;15.87;71.68;98948.13;5093244;28;20489;-45
2023/09/28 05:19:50;;;;;;;26.33;8.25;;;;;;;16.52;72.13;98949.88;5091908;28;20032;-45
2023/09/28 05:22:16;;;;;;;21.35;11.60;;;;;;;17.39;70.47;98950.00;5091886;28;20028;-45
2023/09/28 05:24:42;;;;;;;15.80;6.15;;;;;;;17.63;67.76;98948.81;5091814;28;20038;-45
2023/09/28 05:27:07;;;;;;;10.65;5.50;;;;;;;17.39;67.02;98953.44;5093083;28;20024;-45
2023/09/28 05:29:33;;;;;;;7.65;5.30;;;;;;;17.02;67.17;98950.34;5092034;28;20028;-45
2023/09/28 05:31:59;;;;;;;15.35;7.90;;;;;;;16.83;67.89;98945.22;5091613;28;20031;-45
2023/09/28 05:34:24;;;;;;;16.90;7.10;;;;;;;17.24;68.79;98940.69;5091646;28;20546;-45
2023/09/28 05:36:50;;;;;;;12.55;5.38;;;;;;;17.68;66.47;98940.94;5091609;28;20148;-45
2023/09/28 05:39:18;;;;;;;17.55;6.35;;;;;;;17.72;65.49;98934.09;5092942;28;20024;-45
2023/09/28 05:41:44;;;;;;;12.70;5.65;;;;;;;17.58;65.19;98938.91;5092401;28;20493;-45
2023/09/28 05:44:10;;;;;;;17.90;6.20;;;;;;;17.42;65.42;98938.88;5092821;28;20024;-44
2023/09/28 05:46:36;;;;;;;15.20;6.03;;;;;;;17.33;66.00;98939.28;5092716;28;20024;-45
2023/09/28 05:49:02;;;;;;;10.05;5.60;;;;;;;17.45;65.97;98941.06;5091384;28;20020;-44
2023/09/28 05:51:28;;;;;;;17.25;6.32;;;;;;;17.69;66.15;98937.25;5091205;28;20035;-44
2023/09/28 05:53:54;;;;;;;17.42;6.40;;;;;;;17.78;64.88;98937.63;5091321;28;20020;-45
2023/09/28 05:56:19;;;;;;;10.18;5.47;;;;;;;17.54;64.34;98945.72;5091524;28;20024;-45
2023/09/28 05:58:45;;;;;;;10.77;6.47;;;;;;;17.10;64.80;98944.66;5091198;28;20122;-45
2023/09/28 06:01:13;;;;;;;15.05;5.85;;;;;;;16.73;66.37;98955.59;5092522;28;20081;-45
2023/09/28 06:03:39;;;;;;;11.10;6.20;;;;;;;16.66;67.74;98954.91;5092393;28;20509;-45
2023/09/28 06:06:16;;;;;;;12.38;6.20;;;;;;;17.08;67.96;98944.94;5092431;28;20036;-45
2023/09/28 06:08:42;;;;;;;13.73;6.43;;;;;;;17.42;66.37;98957.47;5092146;28;20570;-45
2023/09/28 06:11:13;;;;;;;10.20;5.55;;;;;;;17.49;65.95;98956.28;5092470;28;20099;-45
2023/09/28 06:13:43;;;;;;;9.77;5.25;;;;;;;17.96;64.77;98956.00;5092258;28;20027;-45
2023/09/28 06:16:12;;;;;;;11.07;5.55;;;;;;;18.41;63.51;98945.50;5092219;28;20043;-45
2023/09/28 06:18:40;;;;;;;10.75;5.90;;;;;;;18.93;62.34;98948.59;5090868;28;20114;-44
2023/09/28 06:21:06;;;;;;;10.55;6.00;;;;;;;19.52;60.57;98945.22;5092167;28;20035;-45
2023/09/28 06:23:33;;;;;;;12.65;6.05;;;;;;;19.84;59.19;98948.97;5092116;28;20490;-45
2023/09/28 06:25:59;;;;;;;13.27;5.68;;;;;;;19.87;58.24;98951.13;5092051;28;20023;-45
2023/09/28 06:28:25;;;;;;;9.25;5.43;;;;;;;19.65;58.84;98943.97;5092039;28;20024;-45
2023/09/28 06:30:54;;;;;;;11.20;5.90;;;;;;;19.62;58.57;98949.84;5090652;28;20024;-45
2023/09/28 06:33:26;;;;;;;10.43;6.07;;;;;;;19.44;59.74;98960.84;5092030;28;20024;-45
2023/09/28 06:35:54;;;;;;;10.60;6.20;;;;;;;19.89;58.58;98954.34;5091996;28;20028;-45
2023/09/28 06:38:19;;;;;;;8.55;5.55;;;;;;;20.28;57.32;98948.72;5092272;28;20031;-45
2023/09/28 06:40:47;;;;;;;11.68;5.47;;;;;;;20.35;56.83;98952.00;5091878;28;20616;-45
2023/09/28 06:43:14;;;;;;;11.95;5.78;;;;;;;20.32;56.96;98953.31;5091871;28;20413;-45
2023/09/28 06:45:40;;;;;;;9.38;5.70;;;;;;;20.44;56.94;98949.63;5092079;28;20024;-45
2023/09/28 06:48:07;;;;;;;17.65;6.88;;;;;;;20.67;56.73;98948.47;5092127;28;20394;-45
2023/09/28 06:50:35;;;;;;;19.88;7.28;;;;;;;21.34;55.71;98950.25;5091685;28;20025;-45
2023/09/28 06:53:02;;;;;;;17.48;6.70;;;;;;;22.36;52.77;98946.03;5092391;28;20028;-45
2023/09/28 06:55:28;;;;;;;25.73;8.80;;;;;;;;;;5094766;28;20020;-45
2023/09/28 06:57:54;;;;;;;28.50;6.75;;;;;;;23.92;47.93;98948.41;5094783;28;20072;-45
2023/09/28 07:00:20;;;;;;;17.65;6.97;;;;;;;24.12;47.49;98950.09;5095919;28;20056;-46
2023/09/28 07:02:49;;;;;;;20.73;6.22;;;;;;;24.88;45.88;98943.13;5077822;28;20056;-45
2023/09/28 07:05:18;;;;;;;34.50;8.25;;;;;;;25.57;44.55;98945.38;5095746;28;20516;-45
2023/09/28 07:07:45;;;;;;;24.73;6.88;;;;;;;26.18;42.27;98945.47;5094245;28;20047;-46
2023/09/28 07:10:11;;;;;;;32.95;7.07;;;;;;;26.24;42.18;98946.97;5095792;28;20031;-45
2023/09/28 07:12:37;;;;;;;11.70;5.57;;;;;;;26.75;40.84;98942.53;5095935;28;20031;-45
2023/09/28 07:15:04;;;;;;;17.38;6.28;;;;;;;27.33;40.32;98941.84;5095669;28;20389;-45
2023/09/28 07:17:30;;;;;;;18.75;6.43;;;;;;;27.97;38.23;98938.16;5095584;28;20103;-45
2023/09/28 07:19:56;;;;;;;15.35;6.43;;;;;;;28.59;37.04;98937.31;5095608;28;20510;-46
2023/09/28 07:22:23;;;;;;;18.45;6.63;;;;;;;29.26;36.22;98936.19;5095510;28;20036;-45
2023/09/28 07:24:49;;;;;;;22.13;8.15;;;;;;;29.41;35.40;98937.59;5095711;28;20024;-45
2023/09/28 07:27:14;;;;;;;19.00;7.25;;;;;;;29.22;35.15;98941.44;5077263;28;20378;-45
2023/09/28 07:29:40;;;;;;;18.77;7.93;;;;;;;28.98;35.70;98944.56;5093978;28;20028;-45
2023/09/28 07:32:08;;;;;;;23.27;6.55;;;;;;;29.04;36.04;98937.09;5095285;28;20101;-45
2023/09/28 07:34:34;;;;;;;15.80;5.82;;;;;;;29.41;35.31;98946.50;5095504;28;20074;-45
2023/09/28 07:37:00;;;;;;;21.92;6.60;;;;;;;29.91;34.14;98950.59;5095254;28;20024;-45
2023/09/28 07:39:25;;;;;;;19.77;6.22;;;;;;;30.49;33.40;98950.28;5093856;28;20047;-46
2023/09/28 07:41:52;;;;;;;18.92;6.90;;;;;;;30.71;33.13;98941.88;5094099;28;20189;-46
2023/09/28 07:44:21;;;;;;;21.23;9.25;;;;;;;30.80;33.07;98950.72;5093805;28;20055;-46
2023/09/28 07:46:47;;;;;;;15.93;7.28;;;;;;;30.83;32.24;98954.72;5094957;28;20047;-46
2023/09/28 07:49:17;;;;;;;39.63;8.15;;;;;;;30.95;32.66;98949.41;5093640;28;20084;-46
2023/09/28 07:51:42;;;;;;;27.08;6.60;;;;;;;31.25;31.83;98954.75;5095124;28;20024;-46
2023/09/28 07:54:08;;;;;;;47.72;8.45;;;;;;;31.44;31.77;98957.00;5094953;28;20047;-46
2023/09/28 07:56:34;;;;;;;24.92;7.60;;;;;;;31.60;31.28;98952.56;5094834;28;20024;-46
2023/09/28 07:59:00;;;;;;;23.05;6.47;;;;;;;31.56;31.31;98953.56;5094869;28;20012;-46
2023/09/28 08:01:28;;;;;;;30.02;6.63;;;;;;;31.31;31.92;98953.44;5094752;28;20565;-46
2023/09/28 08:03:55;;;;;;;38.25;7.70;;;;;;;31.06;32.24;98957.91;5094469;28;20021;-46
2023/09/28 08:06:20;;;;;;;31.40;9.23;;;;;;;31.00;32.64;98951.91;5094614;28;20103;-46
2023/09/28 08:08:46;;;;;;;23.30;8.02;;;;;;;31.02;32.75;98943.44;5094392;28;20127;-46
2023/09/28 08:11:12;;;;;;;27.38;7.50;;;;;;;31.06;32.86;98953.28;5093174;28;20031;-46
2023/09/28 08:13:38;;;;;;;24.63;7.25;;;;;;;31.40;32.15;98942.50;5094540;28;20028;-46
2023/09/28 08:16:04;;;;;;;20.17;7.50;;;;;;;31.84;31.72;98938.25;5094426;28;20027;-46
2023/09/28 08:18:30;;;;;;;18.48;7.10;;;;;;;32.47;30.85;98933.72;5093134;28;20024;-46
2023/09/28 08:20:56;;;;;;;26.95;8.02;;;;;;;33.04;30.46;98940.91;5093339;28;20028;-46
2023/09/28 08:23:22;;;;;;;68.65;16.98;;;;;;;33.47;30.09;98939.44;5094236;28;20420;-46
2023/09/28 08:25:47;;;;;;;65.88;16.77;;;;;;;33.97;29.46;98945.44;5092998;28;20035;-46
2023/09/28 08:28:14;;;;;;;74.38;28.85;;;;;;;34.14;29.23;98944.31;5092869;28;20066;-46
2023/09/28 08:30:41;;;;;;;115.22;21.92;;;;;;;34.19;29.17;98950.31;5094016;28;20027;-46
2023/09/28 08:33:08;;;;;;;92.95;16.55;;;;;;;34.09;29.16;98958.97;5092836;28;20533;-46
2023/09/28 08:35:35;;;;;;;34.30;11.38;;;;;;;34.16;28.69;98961.88;5092918;28;20428;-46
2023/09/28 08:38:01;;;;;;;124.15;20.45;;;;;;;33.98;29.27;98955.97;5094061;28;20063;-46
2023/09/28 08:40:28;;;;;;;48.72;9.68;;;;;;;33.97;29.38;98951.66;5092652;28;20119;-46
2023/09/28 08:42:59;;;;;;;55.20;11.02;;;;;;;34.13;29.01;98969.94;5094251;28;20400;-46
2023/09/28 08:45:31;;;;;;;76.50;14.18;;;;;;;34.61;28.56;98960.63;5092626;28;20028;-46
2023/09/28 08:48:00;;;;;;;53.65;9.95;;;;;;;34.52;28.41;98959.25;5093885;28;20484;-46
2023/09/28 08:50:35;;;;;;;63.05;12.00;;;;;;;33.39;29.43;98954.75;5093739;28;20489;-46
2023/09/28 08:53:04;;;;;;;84.68;13.70;;;;;;;32.20;31.17;98963.16;5093848;28;20337;-46
2023/09/28 08:55:36;;;;;;;65.68;13.50;;;;;;;31.53;32.24;98956.94;5093769;28;20024;-46
2023/09/28 08:58:03;;;;;;;81.80;11.50;;;;;;;31.45;32.75;98955.88;5092481;28;20039;-46
2023/09/28 09:00:29;;;;;;;75.68;12.23;;;;;;;31.63;33.04;98954.63;5092400;28;20016;-46
2023/09/28 09:02:58;;;;;;;67.07;11.93;;;;;;;32.13;32.47;98957.47;5092348;28;20110;-46
2023/09/28 09:05:28;;;;;;;81.47;11.77;;;;;;;32.63;31.48;98957.16;5093471;28;20027;-46
2023/09/28 09:07:59;;;;;;;58.00;10.63;;;;;;;33.44;30.89;98961.88;5093326;28;20631;-46
2023/09/28 09:10:27;;;;;;;59.72;9.30;;;;;;;34.23;29.58;98950.41;5093406;28;20026;-46
2023/09/28 09:12:52;;;;;;;45.63;9.20;;;;;;;34.86;30.56;98949.53;5093435;28;20038;-46
2023/09/28 09:15:20;;;;;;;28.95;6.68;;;;;;;34.85;30.51;98949.88;5092618;28;20016;-46
2023/09/28 09:17:45;;;;;;;36.90;8.20;;;;;;;34.29;30.28;98946.25;5093615;28;20028;-46
2023/09/28 09:20:11;;;;;;;153.43;18.67;;;;;;;34.44;29.67;98947.38;5093307;28;20193;-46
2023/09/28 09:22:37;;;;;;;40.88;7.70;;;;;;;34.60;28.62;98936.47;5091950;28;20109;-46
2023/09/28 09:25:03;;;;;;;22.05;5.97;;;;;;;34.32;28.79;98937.38;5093211;28;20493;-46
2023/09/28 09:27:31;;;;;;;26.58;6.07;;;;;;;34.39;28.64;98926.66;5093156;28;20069;-47
2023/09/28 09:29:58;;;;;;;41.55;7.18;;;;;;;34.64;28.27;98937.31;5093382;28;20431;-46
2023/09/28 09:32:28;;;;;;;63.65;9.88;;;;;;;34.54;28.34;98929.69;5092893;28;20052;-46
2023/09/28 09:34:54;;;;;;;80.43;11.55;;;;;;;34.38;28.65;98935.16;5091636;28;20017;-46
2023/09/28 09:37:20;;;;;;;196.52;20.88;;;;;;;34.13;28.93;98921.72;5091572;28;20454;-47
2023/09/28 09:39:47;;;;;;;327.45;204.65;;;;;;;33.90;29.21;98937.88;5093131;28;20105;-46
2023/09/28 09:42:12;;;;;;;69.93;31.23;;;;;;;33.78;29.04;98940.66;5092787;28;20430;-46
2023/09/28 09:44:39;;;;;;;48.53;10.00;;;;;;;33.77;28.64;98945.31;5074536;28;20016;-47
2023/09/28 09:47:04;;;;;;;47.75;9.00;;;;;;;33.59;29.26;98944.81;5092757;28;20027;-46
2023/09/28 09:49:31;;;;;;;160.35;18.95;;;;;;;33.76;30.88;98945.66;5092649;28;20020;-46
2023/09/28 09:52:05;;;;;;;154.25;19.73;;;;;;;33.99;30.99;98945.88;5092547;28;20454;-46
2023/09/28 09:54:31;;;;;;;;;;;;;;;34.48;30.00;98948.25;5093386;28;20047;-46
2023/09/28 09:56:59;;;;;;;33.88;6.80;;;;;;;34.61;28.75;98943.47;5091255;28;20412;-46
2023/09/28 09:59:28;;;;;;;62.75;10.40;;;;;;;33.90;29.54;98945.25;5092542;28;20027;-46
2023/09/28 10:01:54;;;;;;;94.50;12.32;;;;;;;33.35;30.25;98948.44;5092696;28;20036;-46
2023/09/28 10:04:21;;;;;;;174.77;18.13;;;;;;;32.79;31.11;98938.25;5092495;28;20031;-46
2023/09/28 10:06:53;;;;;;;47.97;7.60;;;;;;;32.02;31.99;98951.69;5091103;28;20106;-46
2023/09/28 10:09:20;;;;;;;22.13;6.05;;;;;;;31.49;32.06;98961.44;5092163;28;20044;-46
2023/09/28 10:11:48;;;;;;;16.75;5.57;;;;;;;31.21;32.75;98951.91;5092288;28;20393;-46
2023/09/28 10:14:19;;;;;;;50.28;7.47;;;;;;;31.30;32.79;98945.63;5092243;28;20106;-46
2023/09/28 10:16:50;;;;;;;56.35;8.88;;;;;;;32.00;32.00;98943.09;5090904;28;20020;-46
2023/09/28 10:19:22;;;;;;;32.35;5.88;;;;;;;33.05;30.70;98937.06;5092518;28;20032;-46
2023/09/28 10:21:51;;;;;;;15.93;5.35;;;;;;;34.50;29.21;98932.34;5092190;28;20031;-46
2023/09/28 10:24:17;;;;;;;27.70;7.10;;;;;;;35.71;27.43;98933.31;5092134;28;20046;-46
2023/09/28 10:26:50;;;;;;;24.35;5.93;;;;;;;36.59;26.13;98923.44;5092360;28;20549;-46
2023/09/28 10:29:23;;;;;;;17.30;6.05;;;;;;;37.17;25.47;98920.34;5092311;28;20397;-47
2023/09/28 10:31:51;;;;;;;11.43;4.72;;;;;;;37.65;23.62;98916.97;5092239;28;20024;-46
2023/09/28 10:34:19;;;;;;;50.63;8.32;;;;;;;38.08;23.44;98916.56;5092169;28;20436;-46
2023/09/28 10:37:10;;;;;;;474.75;46.88;;;;;;;38.13;23.85;98918.94;5091952;28;20016;-46
2023/09/28 10:39:41;;;;;;;331.95;28.33;;;;;;;38.04;23.32;98913.78;5091920;28;20032;-47
2023/09/28 10:42:16;;;;;;;42.85;6.55;;;;;;;37.69;23.30;98916.97;5091919;28;20024;-46
2023/09/28 10:44:48;;;;;;;71.60;8.65;;;;;;;37.09;23.68;98915.91;5091944;28;20020;-47
2023/09/28 10:47:14;;;;;;;39.75;6.35;;;;;;;37.07;23.59;98926.44;5090554;28;20024;-46
2023/09/28 10:49:40;;;;;;;40.35;8.07;;;;;;;37.17;23.65;98911.34;5091874;28;20028;-47
2023/09/28 10:52:10;;;;;;;14.30;5.28;;;;;;;37.46;23.37;98919.88;5090654;28;20089;-46
2023/09/28 10:54:36;;;;;;;14.30;4.80;;;;;;;37.75;22.79;98915.47;5091849;28;20044;-46
2023/09/28 10:57:04;;;;;;;8.27;4.65;;;;;;;38.29;22.18;98915.94;5090419;28;20452;-46
2023/09/28 10:59:30;;;;;;;7.60;4.28;;;;;;;38.63;21.52;98919.31;5091801;28;20020;-47
2023/09/28 11:01:56;;;;;;;19.58;5.47;;;;;;;38.66;21.34;98913.06;5090393;28;20035;-46
2023/09/28 11:04:22;;;;;;;16.52;5.43;;;;;;;38.95;21.51;98913.97;5090430;28;20055;-46
2023/09/28 11:06:49;;;;;;;20.80;5.13;;;;;;;39.11;20.92;98912.91;5090406;28;20513;-47
2023/09/28 11:09:19;;;;;;;34.15;6.07;;;;;;;39.11;20.87;98910.94;5091461;28;20052;-47
2023/09/28 11:11:45;;;;;;;36.58;6.65;;;;;;;39.04;20.11;98907.38;5091475;28;20020;-47
2023/09/28 11:14:11;;;;;;;209.18;20.80;;;;;;;38.71;21.07;98896.22;5091666;28;20032;-47
2023/09/28 11:16:42;;;;;;;262.10;25.88;;;;;;;38.68;21.22;98885.25;5091889;28;20032;-47
2023/09/28 11:19:11;;;;;;;86.93;9.65;;;;;;;38.76;20.70;98893.13;5091677;28;20115;-47
2023/09/28 11:21:37;;;;;;;284.25;29.00;;;;;;;38.72;20.87;98883.31;5091598;28;20476;-47
2023/09/28 11:24:04;;;;;;;222.65;22.40;;;;;;;38.81;20.44;98882.94;5090207;28;20043;-47
2023/09/28 11:26:31;;;;;;;149.18;15.15;;;;;;;38.99;20.60;98885.78;5091493;28;20027;-47
2023/09/28 11:28:59;;;;;;;106.30;12.20;;;;;;;39.11;20.57;98871.72;5090174;28;20028;-47
2023/09/28 11:31:27;;;;;;;110.32;9.82;;;;;;;39.06;20.36;98870.16;5091567;28;20050;-47